Time,TemperatureF,DewpointF,PressureIn,WindDirection,WindDirectionDegrees,WindSpeedMPH,WindSpeedGustMPH,Humidity,HourlyPrecipIn,Conditions,Clouds,dailyrainin,SoftwareType,DateUTC
2013-08-15 00:00:00,71.0,-99.9,-100.00,North,-999,3.0,6.0,76,-99.99,,,-99.99,,2013-08-15 06:00:00,
2013-08-15 00:22:00,-999.0,-99.9,-100.00,North,-999,3.0,6.0,76,-99.99,,,-99.99,,2013-08-15 06:22:00,
2013-08-15 00:42:00,71.0,-99.9,-100.00,North,-999,3.0,6.0,76,-99.99,,,-99.99,,2013-08-15 06:42:00,
2013-08-15 00:52:00,71.0,-99.9,-100.00,North,-999,3.0,6.0,76,-99.99,,,-99.99,,2013-08-15 06:52:00,
2013-08-15 01:00:00,71.0,-99.9,-100.00,North,-999,5.0,7.0,73,-99.99,,,-99.99,,2013-08-15 07:00:00,
2013-08-15 01:21:00,-999.0,-99.9,-100.00,North,-999,5.0,7.0,73,-99.99,,,-99.99,,2013-08-15 07:21:00,
2013-08-15 01:42:00,71.0,-99.9,-100.00,North,-999,5.0,7.0,73,-99.99,,,-99.99,,2013-08-15 07:42:00,
2013-08-15 01:52:00,71.0,-99.9,-100.00,North,-999,5.0,7.0,73,-99.99,,,-99.99,,2013-08-15 07:52:00,
2013-08-15 02:00:00,70.0,-99.9,-100.00,North,-999,4.0,8.0,80,-99.99,,,-99.99,,2013-08-15 08:00:00,
2013-08-15 02:22:00,-999.0,-99.9,-100.00,North,-999,4.0,8.0,80,-99.99,,,-99.99,,2013-08-15 08:22:00,
2013-08-15 02:42:00,70.0,-99.9,-100.00,North,-999,4.0,8.0,80,-99.99,,,-99.99,,2013-08-15 08:42:00,
2013-08-15 02:52:00,70.0,-99.9,-100.00,North,-999,4.0,8.0,80,-99.99,,,-99.99,,2013-08-15 08:52:00,
2013-08-15 03:00:00,68.0,-99.9,-100.00,North,-999,2.0,3.0,84,-99.99,,,-99.99,,2013-08-15 09:00:00,
2013-08-15 03:21:00,-999.0,-99.9,-100.00,North,-999,2.0,3.0,84,-99.99,,,-99.99,,2013-08-15 09:21:00,
2013-08-15 03:42:00,68.0,-99.9,-100.00,North,-999,2.0,3.0,84,-99.99,,,-99.99,,2013-08-15 09:42:00,
2013-08-15 03:53:00,68.0,-99.9,-100.00,North,-999,2.0,3.0,84,-99.99,,,-99.99,,2013-08-15 09:53:00,
2013-08-15 04:00:00,67.0,-99.9,-100.00,North,-999,3.0,5.0,85,-99.99,,,-99.99,,2013-08-15 10:00:00,
2013-08-15 04:22:00,-999.0,-99.9,-100.00,North,-999,3.0,5.0,85,-99.99,,,-99.99,,2013-08-15 10:22:00,
2013-08-15 04:43:00,67.0,-99.9,-100.00,North,-999,3.0,5.0,85,-99.99,,,-99.99,,2013-08-15 10:43:00,
2013-08-15 04:52:00,67.0,-99.9,-100.00,North,-999,3.0,5.0,85,-99.99,,,-99.99,,2013-08-15 10:52:00,
2013-08-15 05:00:00,67.0,-99.9,-100.00,North,-999,2.0,4.0,89,-99.99,,,-99.99,,2013-08-15 11:00:00,
2013-08-15 05:22:00,-999.0,-99.9,-100.00,North,-999,2.0,4.0,89,-99.99,,,-99.99,,2013-08-15 11:22:00,
2013-08-15 05:42:00,67.0,-99.9,-100.00,North,-999,2.0,4.0,89,-99.99,,,-99.99,,2013-08-15 11:42:00,
2013-08-15 05:52:00,67.0,-99.9,-100.00,North,-999,2.0,4.0,89,-99.99,,,-99.99,,2013-08-15 11:52:00,
2013-08-15 06:42:00,67.0,-99.9,-100.00,North,-999,-999.0,-999.0,-999,-99.99,,,-99.99,,2013-08-15 12:42:00,
2013-08-15 06:52:00,67.0,-99.9,-100.00,North,-999,-999.0,-999.0,-999,-99.99,,,-99.99,,2013-08-15 12:52:00,
2013-08-15 07:00:00,66.0,-99.9,-100.00,North,-999,2.0,5.0,94,-99.99,,,-99.99,,2013-08-15 13:00:00,
2013-08-15 07:01:00,67.0,-99.9,-100.00,North,-999,-999.0,-999.0,-999,-99.99,,,-99.99,,2013-08-15 13:01:00,
2013-08-15 07:21:00,-999.0,-99.9,-100.00,North,-999,2.0,5.0,94,-99.99,,,-99.99,,2013-08-15 13:21:00,
2013-08-15 07:42:00,66.0,-99.9,-100.00,North,-999,2.0,5.0,94,-99.99,,,-99.99,,2013-08-15 13:42:00,
2013-08-15 07:52:00,66.0,-99.9,-100.00,North,-999,2.0,5.0,94,-99.99,,,-99.99,,2013-08-15 13:52:00,
2013-08-15 08:00:00,69.0,-99.9,-100.00,North,-999,4.0,6.0,85,-99.99,,,-99.99,,2013-08-15 14:00:00,
2013-08-15 08:22:00,-999.0,-99.9,-100.00,North,-999,4.0,6.0,85,-99.99,,,-99.99,,2013-08-15 14:22:00,
2013-08-15 08:48:00,69.0,-99.9,-100.00,North,-999,4.0,6.0,85,-99.99,,,-99.99,,2013-08-15 14:48:00,
2013-08-15 08:56:00,69.0,-99.9,-100.00,North,-999,4.0,6.0,85,-99.99,,,-99.99,,2013-08-15 14:56:00,
2013-08-15 09:00:00,72.0,-99.9,-100.00,North,-999,4.0,6.0,67,-99.99,,,-99.99,,2013-08-15 15:00:00,
2013-08-15 09:23:00,-999.0,-99.9,-100.00,North,-999,4.0,6.0,67,-99.99,,,-99.99,,2013-08-15 15:23:00,
2013-08-15 09:43:00,72.0,-99.9,-100.00,North,-999,4.0,6.0,67,-99.99,,,-99.99,,2013-08-15 15:43:00,
2013-08-15 09:54:00,72.0,-99.9,-100.00,North,-999,4.0,6.0,67,-99.99,,,-99.99,,2013-08-15 15:54:00,
2013-08-15 10:00:00,77.0,-99.9,-100.00,North,-999,4.0,7.0,49,-99.99,,,-99.99,,2013-08-15 16:00:00,
2013-08-15 10:26:00,-999.0,-99.9,-100.00,North,-999,4.0,7.0,49,-99.99,,,-99.99,,2013-08-15 16:26:00,
2013-08-15 10:44:00,77.0,-99.9,-100.00,North,-999,4.0,7.0,49,-99.99,,,-99.99,,2013-08-15 16:44:00,
2013-08-15 10:55:00,77.0,-99.9,-100.00,North,-999,4.0,7.0,49,-99.99,,,-99.99,,2013-08-15 16:55:00,
2013-08-15 11:00:00,80.0,-99.9,-100.00,North,-999,1.0,4.0,45,-99.99,,,-99.99,,2013-08-15 17:00:00,
2013-08-15 11:31:00,-999.0,-99.9,-100.00,North,-999,1.0,4.0,45,-99.99,,,-99.99,,2013-08-15 17:31:00,
2013-08-15 11:55:00,80.0,-99.9,-100.00,North,-999,1.0,4.0,45,-99.99,,,-99.99,,2013-08-15 17:55:00,
2013-08-15 12:00:00,-999.0,-99.9,-100.00,North,-999,2.0,6.0,-999,-99.99,,,-99.99,,2013-08-15 18:00:00,
2013-08-15 12:01:00,-999.0,-99.9,-100.00,North,-999,1.0,4.0,-999,-99.99,,,-99.99,,2013-08-15 18:01:00,
2013-08-15 12:36:00,-999.0,-99.9,-100.00,North,-999,2.0,6.0,-999,-99.99,,,-99.99,,2013-08-15 18:36:00,
2013-08-15 12:49:00,82.0,-99.9,-100.00,North,-999,2.0,6.0,42,-99.99,,,-99.99,,2013-08-15 18:49:00,
2013-08-15 13:00:00,85.0,-99.9,-100.00,North,-999,4.0,10.0,34,-99.99,,,-99.99,,2013-08-15 19:00:00,
2013-08-15 13:34:00,-999.0,-99.9,-100.00,North,-999,4.0,10.0,-999,-99.99,,,-99.99,,2013-08-15 19:34:00,
2013-08-15 13:49:00,85.0,-99.9,-100.00,North,-999,4.0,10.0,34,-99.99,,,-99.99,,2013-08-15 19:49:00,
2013-08-15 14:00:00,87.0,-99.9,-100.00,North,-999,4.0,10.0,33,-99.99,,,-99.99,,2013-08-15 20:00:00,
2013-08-15 14:34:00,-999.0,-99.9,-100.00,North,-999,4.0,10.0,33,-99.99,,,-99.99,,2013-08-15 20:34:00,
2013-08-15 14:46:00,87.0,-99.9,-100.00,North,-999,4.0,10.0,33,-99.99,,,-99.99,,2013-08-15 20:46:00,
2013-08-15 15:00:00,88.0,-99.9,-100.00,North,-999,4.0,10.0,30,-99.99,,,-99.99,,2013-08-15 21:00:00,
2013-08-15 15:41:00,-999.0,-99.9,-100.00,North,-999,4.0,10.0,30,-99.99,,,-99.99,,2013-08-15 21:41:00,
2013-08-15 15:49:00,88.0,-99.9,-100.00,North,-999,4.0,10.0,30,-99.99,,,-99.99,,2013-08-15 21:49:00,
2013-08-15 15:57:00,88.0,-99.9,-100.00,North,-999,4.0,10.0,30,-99.99,,,-99.99,,2013-08-15 21:57:00,
2013-08-15 16:00:00,89.0,-99.9,-100.00,North,-999,5.0,10.0,27,-99.99,,,-99.99,,2013-08-15 22:00:00,
2013-08-15 16:40:00,-999.0,-99.9,-100.00,North,-999,5.0,10.0,27,-99.99,,,-99.99,,2013-08-15 22:40:00,
2013-08-15 16:58:00,89.0,-99.9,-100.00,North,-999,5.0,10.0,27,-99.99,,,-99.99,,2013-08-15 22:58:00,
2013-08-15 17:00:00,90.0,-99.9,-100.00,North,-999,4.0,10.0,26,-99.99,,,-99.99,,2013-08-15 23:00:00,
2013-08-15 17:35:00,-999.0,-99.9,-100.00,North,-999,4.0,10.0,26,-99.99,,,-99.99,,2013-08-15 23:35:00,
2013-08-15 17:48:00,90.0,-99.9,-100.00,North,-999,4.0,10.0,26,-99.99,,,-99.99,,2013-08-15 23:48:00,
2013-08-15 17:55:00,90.0,-99.9,-100.00,North,-999,4.0,10.0,26,-99.99,,,-99.99,,2013-08-15 23:55:00,
2013-08-15 18:00:00,89.0,-99.9,-100.00,North,-999,3.0,10.0,26,-99.99,,,-99.99,,2013-08-16 00:00:00,
2013-08-15 18:24:00,-999.0,-99.9,-100.00,North,-999,3.0,10.0,26,-99.99,,,-99.99,,2013-08-16 00:24:00,
2013-08-15 18:46:00,89.0,-99.9,-100.00,North,-999,3.0,10.0,26,-99.99,,,-99.99,,2013-08-16 00:46:00,
2013-08-15 18:52:00,89.0,-99.9,-100.00,North,-999,3.0,10.0,26,-99.99,,,-99.99,,2013-08-16 00:52:00,
2013-08-15 19:00:00,86.0,-99.9,-100.00,North,-999,5.0,10.0,31,-99.99,,,-99.99,,2013-08-16 01:00:00,
2013-08-15 19:26:00,-999.0,-99.9,-100.00,North,-999,5.0,10.0,31,-99.99,,,-99.99,,2013-08-16 01:26:00,
2013-08-15 19:43:00,-999.0,-99.9,-100.00,North,-999,5.0,-999.0,-999,-99.99,,,-99.99,,2013-08-16 01:43:00,
2013-08-15 19:54:00,86.0,-99.9,-100.00,North,-999,5.0,10.0,31,-99.99,,,-99.99,,2013-08-16 01:54:00,
2013-08-15 20:00:00,81.0,-99.9,-100.00,North,-999,4.0,8.0,40,-99.99,,,-99.99,,2013-08-16 02:00:00,
2013-08-15 20:22:00,-999.0,-99.9,-100.00,North,-999,4.0,8.0,40,-99.99,,,-99.99,,2013-08-16 02:22:00,
2013-08-15 20:44:00,81.0,-99.9,-100.00,North,-999,4.0,8.0,40,-99.99,,,-99.99,,2013-08-16 02:44:00,
2013-08-15 20:52:00,81.0,-99.9,-100.00,North,-999,4.0,8.0,40,-99.99,,,-99.99,,2013-08-16 02:52:00,
2013-08-15 21:00:00,79.0,-99.9,-100.00,North,-999,2.0,3.0,49,-99.99,,,-99.99,,2013-08-16 03:00:00,
2013-08-15 21:22:00,-999.0,-99.9,-100.00,North,-999,2.0,3.0,49,-99.99,,,-99.99,,2013-08-16 03:22:00,
2013-08-15 21:43:00,79.0,-99.9,-100.00,North,-999,2.0,3.0,49,-99.99,,,-99.99,,2013-08-16 03:43:00,
2013-08-15 21:54:00,79.0,-99.9,-100.00,North,-999,2.0,3.0,49,-99.99,,,-99.99,,2013-08-16 03:54:00,
2013-08-15 22:00:00,75.0,-99.9,-100.00,North,-999,1.0,3.0,57,-99.99,,,-99.99,,2013-08-16 04:00:00,
2013-08-15 22:23:00,-999.0,-99.9,-100.00,North,-999,1.0,3.0,57,-99.99,,,-99.99,,2013-08-16 04:23:00,
2013-08-15 22:54:00,75.0,-99.9,-100.00,North,-999,1.0,3.0,57,-99.99,,,-99.99,,2013-08-16 04:54:00,
2013-08-15 23:22:00,-999.0,-99.9,-100.00,North,-999,3.0,6.0,58,-99.99,,,-99.99,,2013-08-16 05:22:00,